Smit Barbados — MSDU8 — position and weather

sailwx.info

Track history (hours):
 
Tides and Currents Weather Stations Pressure Air Temp Water Temp Dewpoint Dewpoint Depression Visibility Wind Speed Wind Dir Waves Ship Positions

Smit Barbados

Last reported at 2015-Mar-05 15:33 UTC. Time now 2015-Mar-05 18:49 UTC.
Position N 53°26' W 003°00'.

Length 30 m; draft 4.8 m.

Type: Tug. MMSI: 235055303.

Date/timePositionNaut miles runAvg speedWind from/ knotsBaromVisibWave heightAir tempDewpointWater temp
2015-Mar-05 15:33N 53°26' W 003°00'0 0.0
2015-Mar-05 14:33N 53°26' W 003°00'1 0.5
2015-Mar-05 12:33N 53°27' W 003°01'0 0.2
2015-Mar-05 11:33N 53°27' W 003°01'1 0.5
2015-Mar-05 10:33N 53°27' W 003°02'0 0.5
2015-Mar-05 09:33N 53°27' W 003°01'0 0.3
2015-Mar-05 08:33N 53°27' W 003°01'0 0.1
2015-Mar-05 07:33N 53°27' W 003°01'0 0.4
2015-Mar-05 06:33N 53°27' W 003°01'2 2.4
2015-Mar-05 05:33N 53°29' W 003°04'3 2.7
2015-Mar-05 04:33N 53°26' W 003°01'0 0.2
2015-Mar-05 03:33N 53°27' W 003°01'0 0.0
2015-Mar-05 02:33N 53°27' W 003°01'0 0.0
2015-Mar-05 01:33N 53°27' W 003°01'0 0.0
2015-Mar-05 00:33N 53°27' W 003°01'0 0.0
2015-Mar-04 23:33N 53°27' W 003°01'0 0.4
2015-Mar-04 22:33N 53°26' W 003°01'3 2.9
2015-Mar-04 21:33N 53°23' W 003°00'4 3.7
2015-Mar-04 20:33N 53°27' W 003°01'1 0.1
2015-Mar-04 11:16N 53°26' W 003°00'1 1.8
2015-Mar-04 10:33N 53°27' W 003°01'1 0.6
2015-Mar-04 09:33N 53°27' W 003°01'0 0.0
2015-Mar-04 08:33N 53°27' W 003°01'0 0.0
2015-Mar-04 07:33N 53°27' W 003°01'0 0.4
2015-Mar-04 06:33N 53°27' W 003°01'0 0.0
2015-Mar-04 05:33N 53°27' W 003°01'0 0.3
2015-Mar-04 04:33N 53°27' W 003°01'0 0.0
2015-Mar-04 03:33N 53°27' W 003°01'0 0.0
2015-Mar-04 02:33N 53°27' W 003°01'0 0.0
2015-Mar-04 01:33N 53°27' W 003°01'0 0.0
2015-Mar-04 00:33N 53°27' W 003°01'0 0.5
2015-Mar-03 23:33N 53°28' W 003°01'0 0.4
2015-Mar-03 22:33N 53°27' W 003°01'0 0.0
2015-Mar-03 21:33N 53°27' W 003°01'1 0.5
2015-Mar-03 20:33N 53°27' W 003°01'0 0.1
2015-Mar-03 19:33N 53°27' W 003°01'0 0.3
2015-Mar-03 18:33N 53°27' W 003°01'2 1.5
2015-Mar-03 17:33N 53°26' W 003°00'0 0.0
2015-Mar-03 09:21N 53°26' W 003°00'1 1.9
2015-Mar-03 08:33N 53°27' W 003°01'0 0.2
2015-Mar-03 07:33N 53°27' W 003°01'1 0.6
2015-Mar-03 06:33N 53°28' W 003°01'2 0.2
2015-Mar-02 22:13N 53°26' W 003°00'2 2.9
2015-Mar-02 21:33N 53°27' W 003°01'1 0.6
2015-Mar-02 20:33N 53°27' W 003°01'0 0.3
2015-Mar-02 19:33N 53°27' W 003°01'1 0.8
2015-Mar-02 18:33N 53°28' W 003°01'1 0.6
2015-Mar-02 17:34N 53°27' W 003°01'0 0.2
2015-Mar-02 16:33N 53°27' W 003°01'1 1.2
2015-Mar-02 15:33N 53°26' W 003°00'1 0.1
2015-Mar-02 10:33N 53°26' W 003°01'1 0.7
2015-Mar-02 09:33N 53°27' W 003°01'0 0.0
2015-Mar-02 08:33N 53°27' W 003°01'0 0.5
2015-Mar-02 07:33N 53°27' W 003°01'2 1.8
2015-Mar-02 06:33N 53°26' W 003°00'0 0.0
2015-Mar-01 20:34N 53°26' W 003°00'1 1.4
2015-Mar-01 19:33N 53°27' W 003°01'0 0.2
2015-Mar-01 18:33N 53°27' W 003°01'1 0.1
2015-Feb-28 21:20N 53°26' W 003°00'2 2.5
2015-Feb-28 20:33N 53°28' W 003°01'1 0.6
2015-Feb-28 19:33N 53°27' W 003°01'2 2.2
2015-Feb-28 18:33N 53°29' W 003°04'2 2.1
2015-Feb-28 17:33N 53°27' W 003°01'1 0.5
2015-Feb-28 16:33N 53°28' W 003°02'2 0.2
2015-Feb-28 08:24N 53°26' W 003°00'3 1.3
2015-Feb-28 06:19N 53°23' W 003°00'0 0.3
2015-Feb-28 05:33N 53°23' W 003°00'3 2.5
2015-Feb-28 04:33N 53°25' W 003°01'1 0.1
2015-Feb-27 19:05N 53°26' W 003°00'2 3.6
2015-Feb-27 18:34N 53°27' W 003°02'1 0.5
2015-Feb-27 17:33N 53°27' W 003°01'0 0.2
2015-Feb-27 16:34N 53°27' W 003°01'0 0.4
2015-Feb-27 15:33N 53°26' W 003°01'0 0.5
2015-Feb-27 14:34N 53°27' W 003°01'0 0.0
2015-Feb-27 07:33N 53°27' W 003°01'0 0.3
2015-Feb-27 06:34N 53°27' W 003°01'0 0.3
2015-Feb-27 05:33N 53°27' W 003°01'0 0.5
2015-Feb-27 04:33N 53°28' W 003°02'2 0.2
2015-Feb-26 18:33N 53°26' W 003°00'2 1.6
2015-Feb-26 17:33N 53°27' W 003°01'0 0.3
2015-Feb-26 16:33N 53°27' W 003°01'0 0.4
2015-Feb-26 15:33N 53°27' W 003°01'0 0.4
2015-Feb-26 14:33N 53°26' W 003°01'1 0.0
2015-Feb-25 16:33N 53°27' W 003°01'0 0.2
2015-Feb-25 15:33N 53°27' W 003°01'0 0.1
2015-Feb-25 14:34N 53°27' W 003°01'0 0.3
2015-Feb-25 13:34N 53°27' W 003°01'1 1.5
2015-Feb-25 12:34N 53°26' W 003°00'0 0.0
2015-Feb-25 05:24N 53°26' W 003°00'1 0.6
2015-Feb-25 04:33N 53°26' W 003°01'3 1.9
2015-Feb-25 03:09N 53°23' W 003°00'4 6.1
2015-Feb-25 02:33N 53°27' W 003°01'0 0.4
2015-Feb-25 01:33N 53°27' W 003°01'0 0.0
2015-Feb-25 00:33N 53°27' W 003°01'0 0.0
2015-Feb-24 16:33N 53°27' W 003°01'0 0.4
2015-Feb-24 15:33N 53°27' W 003°01'1 0.2
2015-Feb-24 10:34N 53°26' W 003°01'1 0.8
2015-Feb-24 09:33N 53°27' W 003°00'1 0.2
2015-Feb-24 05:30N 53°26' W 003°00'1 1.3
2015-Feb-24 04:33N 53°27' W 003°01'1 0.8
2015-Feb-24 03:33N 53°26' W 003°01'1 1.0
2015-Feb-24 02:33N 53°27' W 003°01'1 0.6
2015-Feb-24 01:33N 53°28' W 003°01'1 0.5
2015-Feb-24 00:33N 53°27' W 003°01'0 0.1
2015-Feb-23 23:33N 53°27' W 003°01'1 0.6
2015-Feb-23 22:33N 53°28' W 003°02'  
Track history (hours):
 
Tides and Currents Weather Stations Pressure Air Temp Water Temp Dewpoint Dewpoint Depression Visibility Wind Speed Wind Dir Waves Ship Positions

Smit Barbados

Last reported at 2015-Mar-05 15:33 UTC. Time now 2015-Mar-05 18:49 UTC.
Position N 53°26' W 003°00'.

Length 30 m; draft 4.8 m.

Type: Tug. MMSI: 235055303.

Date/timePositionNaut miles runAvg speedWind from/ knotsBaromVisibWave heightAir tempDewpointWater temp
2015-Mar-05 15:33N 53°26' W 003°00'0 0.0
2015-Mar-05 14:33N 53°26' W 003°00'1 0.5
2015-Mar-05 12:33N 53°27' W 003°01'0 0.2
2015-Mar-05 11:33N 53°27' W 003°01'1 0.5
2015-Mar-05 10:33N 53°27' W 003°02'0 0.5
2015-Mar-05 09:33N 53°27' W 003°01'0 0.3
2015-Mar-05 08:33N 53°27' W 003°01'0 0.1
2015-Mar-05 07:33N 53°27' W 003°01'0 0.4
2015-Mar-05 06:33N 53°27' W 003°01'2 2.4
2015-Mar-05 05:33N 53°29' W 003°04'3 2.7
2015-Mar-05 04:33N 53°26' W 003°01'0 0.2
2015-Mar-05 03:33N 53°27' W 003°01'0 0.0
2015-Mar-05 02:33N 53°27' W 003°01'0 0.0
2015-Mar-05 01:33N 53°27' W 003°01'0 0.0
2015-Mar-05 00:33N 53°27' W 003°01'0 0.0
2015-Mar-04 23:33N 53°27' W 003°01'0 0.4
2015-Mar-04 22:33N 53°26' W 003°01'3 2.9
2015-Mar-04 21:33N 53°23' W 003°00'4 3.7
2015-Mar-04 20:33N 53°27' W 003°01'1 0.1
2015-Mar-04 11:16N 53°26' W 003°00'1 1.8
2015-Mar-04 10:33N 53°27' W 003°01'1 0.6
2015-Mar-04 09:33N 53°27' W 003°01'0 0.0
2015-Mar-04 08:33N 53°27' W 003°01'0 0.0
2015-Mar-04 07:33N 53°27' W 003°01'0 0.4
2015-Mar-04 06:33N 53°27' W 003°01'0 0.0
2015-Mar-04 05:33N 53°27' W 003°01'0 0.3
2015-Mar-04 04:33N 53°27' W 003°01'0 0.0
2015-Mar-04 03:33N 53°27' W 003°01'0 0.0
2015-Mar-04 02:33N 53°27' W 003°01'0 0.0
2015-Mar-04 01:33N 53°27' W 003°01'0 0.0
2015-Mar-04 00:33N 53°27' W 003°01'0 0.5
2015-Mar-03 23:33N 53°28' W 003°01'0 0.4
2015-Mar-03 22:33N 53°27' W 003°01'0 0.0
2015-Mar-03 21:33N 53°27' W 003°01'1 0.5
2015-Mar-03 20:33N 53°27' W 003°01'0 0.1
2015-Mar-03 19:33N 53°27' W 003°01'0 0.3
2015-Mar-03 18:33N 53°27' W 003°01'2 1.5
2015-Mar-03 17:33N 53°26' W 003°00'0 0.0
2015-Mar-03 09:21N 53°26' W 003°00'1 1.9
2015-Mar-03 08:33N 53°27' W 003°01'0 0.2
2015-Mar-03 07:33N 53°27' W 003°01'1 0.6
2015-Mar-03 06:33N 53°28' W 003°01'2 0.2
2015-Mar-02 22:13N 53°26' W 003°00'2 2.9
2015-Mar-02 21:33N 53°27' W 003°01'1 0.6
2015-Mar-02 20:33N 53°27' W 003°01'0 0.3
2015-Mar-02 19:33N 53°27' W 003°01'1 0.8
2015-Mar-02 18:33N 53°28' W 003°01'1 0.6
2015-Mar-02 17:34N 53°27' W 003°01'0 0.2
2015-Mar-02 16:33N 53°27' W 003°01'1 1.2
2015-Mar-02 15:33N 53°26' W 003°00'1 0.1
2015-Mar-02 10:33N 53°26' W 003°01'1 0.7
2015-Mar-02 09:33N 53°27' W 003°01'0 0.0
2015-Mar-02 08:33N 53°27' W 003°01'0 0.5
2015-Mar-02 07:33N 53°27' W 003°01'2 1.8
2015-Mar-02 06:33N 53°26' W 003°00'0 0.0
2015-Mar-01 20:34N 53°26' W 003°00'1 1.4
2015-Mar-01 19:33N 53°27' W 003°01'0 0.2
2015-Mar-01 18:33N 53°27' W 003°01'1 0.1
2015-Feb-28 21:20N 53°26' W 003°00'2 2.5
2015-Feb-28 20:33N 53°28' W 003°01'1 0.6
2015-Feb-28 19:33N 53°27' W 003°01'2 2.2
2015-Feb-28 18:33N 53°29' W 003°04'2 2.1
2015-Feb-28 17:33N 53°27' W 003°01'1 0.5
2015-Feb-28 16:33N 53°28' W 003°02'2 0.2
2015-Feb-28 08:24N 53°26' W 003°00'3 1.3
2015-Feb-28 06:19N 53°23' W 003°00'0 0.3
2015-Feb-28 05:33N 53°23' W 003°00'3 2.5
2015-Feb-28 04:33N 53°25' W 003°01'1 0.1
2015-Feb-27 19:05N 53°26' W 003°00'2 3.6
2015-Feb-27 18:34N 53°27' W 003°02'1 0.5
2015-Feb-27 17:33N 53°27' W 003°01'0 0.2
2015-Feb-27 16:34N 53°27' W 003°01'0 0.4
2015-Feb-27 15:33N 53°26' W 003°01'0 0.5
2015-Feb-27 14:34N 53°27' W 003°01'0 0.0
2015-Feb-27 07:33N 53°27' W 003°01'0 0.3
2015-Feb-27 06:34N 53°27' W 003°01'0 0.3
2015-Feb-27 05:33N 53°27' W 003°01'0 0.5
2015-Feb-27 04:33N 53°28' W 003°02'2 0.2
2015-Feb-26 18:33N 53°26' W 003°00'2 1.6
2015-Feb-26 17:33N 53°27' W 003°01'0 0.3
2015-Feb-26 16:33N 53°27' W 003°01'0 0.4
2015-Feb-26 15:33N 53°27' W 003°01'0 0.4
2015-Feb-26 14:33N 53°26' W 003°01'1 0.0
2015-Feb-25 16:33N 53°27' W 003°01'0 0.2
2015-Feb-25 15:33N 53°27' W 003°01'0 0.1
2015-Feb-25 14:34N 53°27' W 003°01'0 0.3
2015-Feb-25 13:34N 53°27' W 003°01'1 1.5
2015-Feb-25 12:34N 53°26' W 003°00'0 0.0
2015-Feb-25 05:24N 53°26' W 003°00'1 0.6
2015-Feb-25 04:33N 53°26' W 003°01'3 1.9
2015-Feb-25 03:09N 53°23' W 003°00'4 6.1
2015-Feb-25 02:33N 53°27' W 003°01'0 0.4
2015-Feb-25 01:33N 53°27' W 003°01'0 0.0
2015-Feb-25 00:33N 53°27' W 003°01'0 0.0
2015-Feb-24 16:33N 53°27' W 003°01'0 0.4
2015-Feb-24 15:33N 53°27' W 003°01'1 0.2
2015-Feb-24 10:34N 53°26' W 003°01'1 0.8
2015-Feb-24 09:33N 53°27' W 003°00'1 0.2
2015-Feb-24 05:30N 53°26' W 003°00'1 1.3
2015-Feb-24 04:33N 53°27' W 003°01'1 0.8
2015-Feb-24 03:33N 53°26' W 003°01'1 1.0
2015-Feb-24 02:33N 53°27' W 003°01'1 0.6
2015-Feb-24 01:33N 53°28' W 003°01'1 0.5
2015-Feb-24 00:33N 53°27' W 003°01'0 0.1
2015-Feb-23 23:33N 53°27' W 003°01'1 0.6
2015-Feb-23 22:33N 53°28' W 003°02'  

Dump ship's entire track history